AirNav   BOSE ProFlight Aviation Headset
 
 577 users online  

VT47 Miller Farm Airfield
Vernon, Vermont, USA

GOING TO VERNON?


FAA INFORMATION EFFECTIVE 19 JULY 2018

Location

FAA Identifier: VT47
Lat/Long: 42-46-43.0000N / 072-31-40.0000W
42-46.716667N / 072-31.666667W
42.7786111 / -72.5277778
(estimated)
Elevation: 285 ft. / 87 m (estimated)
From city: 1 mile NW of VERNON, VT
Time zone: UTC -4 (UTC -5 during Standard Time)
Zip code: 05354

Airport Operations

Airport use: Private use. Permission required prior to landing
Activation date: 02/2003
Control tower: no
ARTCC: BOSTON CENTER
FSS: BURLINGTON FLIGHT SERVICE STATION
Attendance: UNATNDD
Segmented circle: no

Airport Communications

WX AWOS-3PT at EEN (13 nm NE): 119.025 (603-358-6424)
WX ASOS at ORE (16 nm SE): 135.675 (978-544-6774)

Nearby radio navigation aids

VOR radial/distance  VOR name  Freq  Var
EENr279/10.4KEENE VORTAC109.4014W
GDMr318/25.0GARDNER VOR/DME110.6014W
CTRr046/34.7CHESTER VOR/DME115.1013W
CEFr014/34.9WESTOVER VORTAC114.0014W
BAFr027/37.9BARNES VORTAC113.0014W
CAMr124/38.1CAMBRIDGE VOR/DME115.0014W

 
NDB name  Hdg/Dist  Freq  Var  ID
CLAREMONT207/36.123316WCNH -.-. -. ....
FITCHBURG307/36.636515WFIT ..-. .. -

Airport Services

Runway Information

Runway 18/36

Dimensions: 1800 x 100 ft. / 549 x 30 m
Surface: turf
RUNWAY 18  RUNWAY 36
Traffic pattern: leftleft

Airport Ownership and Management from official FAA records

Ownership: Privately-owned
Owner: PETER MILLER
1732 FT BRIDGEMAN RD
VERNON, VT 05354
Phone 802-380-3862
Manager: PETER MILLER
1732 FT BRIDGEMAN RD
VERNON, VT 05354
Phone 802-380-3862

Airport Operational Statistics

Aircraft based on the field: 1
Single engine airplanes: 1
    

Additional Remarks

286 FT TOWER 3/5 NM SE OF RY.

Instrument Procedures

There are no published instrument procedures at VT47.

Some nearby airports with instrument procedures:

0B5 - Turners Falls Airport (11 nm S)
KEEN - Dillant-Hopkins Airport (13 nm NE)
KORE - Orange Municipal Airport (16 nm SE)
4V8 - Deerfield Valley Regional Airport (17 nm NW)
KAFN - Jaffrey Airport-Silver Ranch (23 nm E)
 
Loc | Ops | Rwys | IFR | FBO | Links
Com | Nav | Svcs | Stats | Notes


 
Area around VT47 (Miller Farm Airfield)
 
Road maps at: MapQuest Bing Google
 
Aerial photo
No photo
 
Sectional chart

 
Airport distance calculator
Flying to Miller Farm Airfield? Find the distance to fly.

From to VT47

Sunrise and sunset
Times for 20-Jul-2018
 Local
(UTC-4)
 Zulu
(UTC)
Morning civil twilight04:5708:57
Sunrise05:3109:31
Sunset20:2200:22
Evening civil twilight20:5600:56

Current date and time
Zulu (UTC)  20-Jul-2018 05:03:04
Local (UTC-4)  20-Jul-2018 01:03:04
 
METAR
KEEN 
13nm NE 
200456Z AUTO 00000KT 10SM CLR 13/13 A3015 RMK AO2 SLP225 T01330128 403000083
KORE 
17nm SE 
200452Z AUTO 00000KT 10SM CLR 15/13 A3016 RMK AO2 SLP211 T01500133 402780100
KAFN 
23nm E 
200452Z AUTO 00000KT 10SM CLR 14/13 A3016 RMK AO2 SLP216 T01390133 402670083
TAF
KCEF 
35nm S 
200200Z 2002/2108 20006KT 9999 SKC QNH3005INS BECMG 2008/2009 18006KT 1600 BR SKC QNH3010INS BECMG 2012/2013 16006KT 9999 NSW FEW050 QNH3012INS TX30/2021Z TN11/2011Z LAST NO AMDS AFT 2003 NEXT 2010
KBAF 
38nm S 
200328Z 2003/2024 00000KT P6SM SKC FM200800 00000KT 3SM BR SKC FM201100 00000KT P6SM SKC FM201500 13003KT P6SM FEW035 FM201700 15008KT P6SM FEW040 FM202100 17010KT P6SM SCT050
KPSF 
39nm SW 
191720Z 1918/2018 30005KT P6SM FEW050 FEW250 FM192300 VRB03KT P6SM SKC FM200500 00000KT 4SM BR SCT002 FM200700 00000KT 3/4SM BR BKN002 FM201200 VRB03KT P6SM SKC AMD NOT SKED
KORH 
42nm SE 
200328Z 2003/2024 VRB05KT P6SM SKC FM201700 17006KT P6SM FEW040 FM202000 15009KT P6SM SCT050
NOTAMs
Click for the latest NOTAMs
NOTAMs are issued by the DoD/FAA and will open in a separate window not controlled by AirNav.

 

 
 

Would you like to see your business listed on this page?

 If your business provides an interesting product or service to pilots, flight crews, aircraft, or users of the Miller Farm Airfield, you should consider listing it here.  To start the listing process, click on the button below
 
Add a business
 

Other Pages about Miller Farm Airfield

Update a link
 
Copyright © AirNav, LLC. All rights reserved. Privacy Policy  Contact